sensor_id;sensor_type;location;lat;lon;timestamp;P1;durP1;ratioP1;P2;durP2;ratioP2
17886;SDS011;9069;52.044;7.472;2023-10-19T00:02:08;13.13;;;6.07;;
17886;SDS011;9069;52.044;7.472;2023-10-19T00:04:41;8.80;;;6.05;;
17886;SDS011;9069;52.044;7.472;2023-10-19T00:07:08;12.68;;;6.47;;
17886;SDS011;9069;52.044;7.472;2023-10-19T00:09:42;14.52;;;6.72;;
17886;SDS011;9069;52.044;7.472;2023-10-19T00:12:14;9.20;;;5.75;;
17886;SDS011;9069;52.044;7.472;2023-10-19T00:14:42;11.95;;;6.80;;
17886;SDS011;9069;52.044;7.472;2023-10-19T00:17:09;11.40;;;6.55;;
17886;SDS011;9069;52.044;7.472;2023-10-19T00:19:38;12.25;;;6.78;;
17886;SDS011;9069;52.044;7.472;2023-10-19T00:22:24;10.60;;;6.57;;
17886;SDS011;9069;52.044;7.472;2023-10-19T00:24:51;12.68;;;5.97;;
17886;SDS011;9069;52.044;7.472;2023-10-19T00:27:18;11.23;;;6.80;;
17886;SDS011;9069;52.044;7.472;2023-10-19T00:29:48;13.13;;;6.43;;
17886;SDS011;9069;52.044;7.472;2023-10-19T00:32:16;10.45;;;6.15;;
17886;SDS011;9069;52.044;7.472;2023-10-19T00:34:44;12.15;;;6.40;;
17886;SDS011;9069;52.044;7.472;2023-10-19T00:37:19;11.77;;;6.78;;
17886;SDS011;9069;52.044;7.472;2023-10-19T00:39:58;10.85;;;6.45;;
17886;SDS011;9069;52.044;7.472;2023-10-19T00:42:41;10.70;;;6.32;;
17886;SDS011;9069;52.044;7.472;2023-10-19T00:45:12;10.07;;;6.38;;
17886;SDS011;9069;52.044;7.472;2023-10-19T00:47:39;11.25;;;6.95;;
17886;SDS011;9069;52.044;7.472;2023-10-19T00:50:07;13.52;;;6.93;;
17886;SDS011;9069;52.044;7.472;2023-10-19T00:52:42;10.32;;;6.75;;
17886;SDS011;9069;52.044;7.472;2023-10-19T00:55:13;10.48;;;6.47;;
17886;SDS011;9069;52.044;7.472;2023-10-19T00:57:40;12.13;;;5.88;;
17886;SDS011;9069;52.044;7.472;2023-10-19T01:00:15;10.73;;;7.00;;
17886;SDS011;9069;52.044;7.472;2023-10-19T01:02:57;9.73;;;6.43;;
17886;SDS011;9069;52.044;7.472;2023-10-19T01:05:27;10.68;;;6.57;;
17886;SDS011;9069;52.044;7.472;2023-10-19T01:08:03;10.63;;;6.53;;
17886;SDS011;9069;52.044;7.472;2023-10-19T01:10:51;10.43;;;6.65;;
17886;SDS011;9069;52.044;7.472;2023-10-19T01:13:19;13.63;;;7.00;;
17886;SDS011;9069;52.044;7.472;2023-10-19T01:15:54;8.80;;;6.40;;
17886;SDS011;9069;52.044;7.472;2023-10-19T01:18:22;10.68;;;7.18;;
17886;SDS011;9069;52.044;7.472;2023-10-19T01:20:55;10.77;;;6.07;;
17886;SDS011;9069;52.044;7.472;2023-10-19T01:23:24;9.52;;;6.75;;
17886;SDS011;9069;52.044;7.472;2023-10-19T01:25:55;10.43;;;6.53;;
17886;SDS011;9069;52.044;7.472;2023-10-19T01:31:04;11.60;;;6.68;;
17886;SDS011;9069;52.044;7.472;2023-10-19T01:33:33;10.63;;;6.50;;
17886;SDS011;9069;52.044;7.472;2023-10-19T01:36:02;9.20;;;6.57;;
17886;SDS011;9069;52.044;7.472;2023-10-19T01:38:40;8.32;;;6.00;;
17886;SDS011;9069;52.044;7.472;2023-10-19T01:41:08;9.82;;;6.60;;
17886;SDS011;9069;52.044;7.472;2023-10-19T01:43:45;10.05;;;6.53;;
17886;SDS011;9069;52.044;7.472;2023-10-19T01:46:14;12.63;;;7.30;;
17886;SDS011;9069;52.044;7.472;2023-10-19T01:48:52;12.23;;;6.78;;
17886;SDS011;9069;52.044;7.472;2023-10-19T01:51:22;10.20;;;6.70;;
17886;SDS011;9069;52.044;7.472;2023-10-19T01:53:51;9.95;;;6.20;;
17886;SDS011;9069;52.044;7.472;2023-10-19T01:56:18;9.98;;;6.68;;
17886;SDS011;9069;52.044;7.472;2023-10-19T01:58:45;9.80;;;6.38;;
17886;SDS011;9069;52.044;7.472;2023-10-19T02:01:14;11.15;;;6.30;;
17886;SDS011;9069;52.044;7.472;2023-10-19T02:03:47;8.95;;;6.03;;
17886;SDS011;9069;52.044;7.472;2023-10-19T02:06:25;11.32;;;7.07;;
17886;SDS011;9069;52.044;7.472;2023-10-19T02:08:57;9.65;;;6.65;;
17886;SDS011;9069;52.044;7.472;2023-10-19T02:11:48;10.23;;;6.68;;
17886;SDS011;9069;52.044;7.472;2023-10-19T02:14:16;9.10;;;6.05;;
17886;SDS011;9069;52.044;7.472;2023-10-19T02:16:47;10.10;;;6.57;;
17886;SDS011;9069;52.044;7.472;2023-10-19T02:19:19;9.60;;;6.80;;
17886;SDS011;9069;52.044;7.472;2023-10-19T02:21:51;9.80;;;6.88;;
17886;SDS011;9069;52.044;7.472;2023-10-19T02:24:22;7.55;;;5.47;;
17886;SDS011;9069;52.044;7.472;2023-10-19T02:26:49;9.82;;;6.53;;
17886;SDS011;9069;52.044;7.472;2023-10-19T02:29:18;9.20;;;6.13;;
17886;SDS011;9069;52.044;7.472;2023-10-19T02:31:45;9.60;;;5.95;;
17886;SDS011;9069;52.044;7.472;2023-10-19T02:34:14;8.20;;;5.53;;
17886;SDS011;9069;52.044;7.472;2023-10-19T02:36:44;7.00;;;5.38;;
17886;SDS011;9069;52.044;7.472;2023-10-19T02:39:12;8.73;;;5.47;;
17886;SDS011;9069;52.044;7.472;2023-10-19T02:41:41;8.63;;;5.60;;
17886;SDS011;9069;52.044;7.472;2023-10-19T02:44:19;8.32;;;5.68;;
17886;SDS011;9069;52.044;7.472;2023-10-19T02:46:51;8.43;;;5.65;;
17886;SDS011;9069;52.044;7.472;2023-10-19T02:49:21;7.25;;;5.50;;
17886;SDS011;9069;52.044;7.472;2023-10-19T02:51:49;7.53;;;5.28;;
17886;SDS011;9069;52.044;7.472;2023-10-19T02:54:17;10.02;;;5.40;;
17886;SDS011;9069;52.044;7.472;2023-10-19T02:56:49;7.40;;;5.10;;
17886;SDS011;9069;52.044;7.472;2023-10-19T02:59:20;7.43;;;5.65;;
17886;SDS011;9069;52.044;7.472;2023-10-19T03:01:51;7.68;;;5.68;;
17886;SDS011;9069;52.044;7.472;2023-10-19T03:04:21;10.02;;;6.72;;
17886;SDS011;9069;52.044;7.472;2023-10-19T03:06:47;8.73;;;5.93;;
17886;SDS011;9069;52.044;7.472;2023-10-19T03:09:15;9.27;;;6.07;;
17886;SDS011;9069;52.044;7.472;2023-10-19T03:11:49;9.88;;;6.63;;
17886;SDS011;9069;52.044;7.472;2023-10-19T03:14:19;10.52;;;7.03;;
17886;SDS011;9069;52.044;7.472;2023-10-19T03:16:46;12.50;;;7.32;;
17886;SDS011;9069;52.044;7.472;2023-10-19T03:19:14;10.30;;;6.65;;
17886;SDS011;9069;52.044;7.472;2023-10-19T03:21:40;10.40;;;6.88;;
17886;SDS011;9069;52.044;7.472;2023-10-19T03:24:10;9.07;;;6.50;;
17886;SDS011;9069;52.044;7.472;2023-10-19T03:26:50;10.27;;;7.30;;
17886;SDS011;9069;52.044;7.472;2023-10-19T03:29:17;10.43;;;7.05;;
17886;SDS011;9069;52.044;7.472;2023-10-19T03:31:58;12.57;;;7.13;;
17886;SDS011;9069;52.044;7.472;2023-10-19T03:34:28;9.95;;;6.47;;
17886;SDS011;9069;52.044;7.472;2023-10-19T03:36:59;14.77;;;6.97;;
17886;SDS011;9069;52.044;7.472;2023-10-19T03:39:35;10.07;;;6.95;;
17886;SDS011;9069;52.044;7.472;2023-10-19T03:42:05;10.82;;;7.57;;
17886;SDS011;9069;52.044;7.472;2023-10-19T03:44:33;11.73;;;7.15;;
17886;SDS011;9069;52.044;7.472;2023-10-19T03:47:19;11.65;;;7.10;;
17886;SDS011;9069;52.044;7.472;2023-10-19T03:49:47;10.68;;;7.55;;
17886;SDS011;9069;52.044;7.472;2023-10-19T03:52:17;10.43;;;6.68;;
17886;SDS011;9069;52.044;7.472;2023-10-19T03:54:44;12.38;;;7.65;;
17886;SDS011;9069;52.044;7.472;2023-10-19T03:57:12;12.15;;;8.18;;
17886;SDS011;9069;52.044;7.472;2023-10-19T03:59:46;10.55;;;7.45;;
17886;SDS011;9069;52.044;7.472;2023-10-19T04:02:19;11.70;;;7.22;;
17886;SDS011;9069;52.044;7.472;2023-10-19T04:04:55;12.52;;;8.23;;
17886;SDS011;9069;52.044;7.472;2023-10-19T04:07:24;13.30;;;8.82;;
17886;SDS011;9069;52.044;7.472;2023-10-19T04:09:57;12.45;;;7.82;;
17886;SDS011;9069;52.044;7.472;2023-10-19T04:12:36;11.23;;;7.63;;
17886;SDS011;9069;52.044;7.472;2023-10-19T04:15:05;12.55;;;8.20;;
17886;SDS011;9069;52.044;7.472;2023-10-19T04:17:45;14.38;;;8.65;;
17886;SDS011;9069;52.044;7.472;2023-10-19T04:20:13;14.23;;;7.72;;
17886;SDS011;9069;52.044;7.472;2023-10-19T04:22:41;13.43;;;7.93;;
17886;SDS011;9069;52.044;7.472;2023-10-19T04:25:08;12.27;;;8.45;;
17886;SDS011;9069;52.044;7.472;2023-10-19T04:27:39;14.18;;;9.10;;
17886;SDS011;9069;52.044;7.472;2023-10-19T04:30:08;16.42;;;9.25;;
17886;SDS011;9069;52.044;7.472;2023-10-19T04:32:42;12.25;;;8.68;;
17886;SDS011;9069;52.044;7.472;2023-10-19T04:35:10;11.63;;;6.93;;
17886;SDS011;9069;52.044;7.472;2023-10-19T04:37:39;13.18;;;8.35;;
17886;SDS011;9069;52.044;7.472;2023-10-19T04:40:09;11.77;;;8.70;;
17886;SDS011;9069;52.044;7.472;2023-10-19T04:42:39;13.07;;;8.10;;
17886;SDS011;9069;52.044;7.472;2023-10-19T04:45:06;14.13;;;7.97;;
17886;SDS011;9069;52.044;7.472;2023-10-19T04:47:33;10.65;;;7.97;;
17886;SDS011;9069;52.044;7.472;2023-10-19T04:50:02;12.25;;;7.28;;
17886;SDS011;9069;52.044;7.472;2023-10-19T04:52:30;16.92;;;8.38;;
17886;SDS011;9069;52.044;7.472;2023-10-19T04:54:57;9.70;;;6.97;;
17886;SDS011;9069;52.044;7.472;2023-10-19T04:57:24;10.15;;;7.45;;
17886;SDS011;9069;52.044;7.472;2023-10-19T04:59:54;11.13;;;7.95;;
17886;SDS011;9069;52.044;7.472;2023-10-19T05:02:21;10.85;;;7.07;;
17886;SDS011;9069;52.044;7.472;2023-10-19T05:04:49;11.50;;;7.28;;
17886;SDS011;9069;52.044;7.472;2023-10-19T05:07:16;12.40;;;7.78;;
17886;SDS011;9069;52.044;7.472;2023-10-19T05:09:43;12.60;;;8.27;;
17886;SDS011;9069;52.044;7.472;2023-10-19T05:12:13;14.25;;;8.65;;
17886;SDS011;9069;52.044;7.472;2023-10-19T05:14:41;11.23;;;8.75;;
17886;SDS011;9069;52.044;7.472;2023-10-19T05:17:09;12.50;;;8.75;;
17886;SDS011;9069;52.044;7.472;2023-10-19T05:19:37;14.45;;;8.13;;
17886;SDS011;9069;52.044;7.472;2023-10-19T05:22:06;12.32;;;8.63;;
17886;SDS011;9069;52.044;7.472;2023-10-19T05:24:34;13.90;;;8.15;;
17886;SDS011;9069;52.044;7.472;2023-10-19T05:27:01;12.18;;;8.48;;
17886;SDS011;9069;52.044;7.472;2023-10-19T05:29:30;16.15;;;9.05;;
17886;SDS011;9069;52.044;7.472;2023-10-19T05:31:59;13.15;;;8.13;;
17886;SDS011;9069;52.044;7.472;2023-10-19T05:34:28;12.23;;;8.20;;
17886;SDS011;9069;52.044;7.472;2023-10-19T05:36:56;17.05;;;8.13;;
17886;SDS011;9069;52.044;7.472;2023-10-19T05:39:25;16.17;;;9.40;;
17886;SDS011;9069;52.044;7.472;2023-10-19T05:41:54;12.05;;;8.52;;
17886;SDS011;9069;52.044;7.472;2023-10-19T05:44:22;17.38;;;9.18;;
17886;SDS011;9069;52.044;7.472;2023-10-19T05:46:51;11.65;;;8.38;;
17886;SDS011;9069;52.044;7.472;2023-10-19T05:49:18;12.85;;;8.07;;
17886;SDS011;9069;52.044;7.472;2023-10-19T05:51:46;12.27;;;8.10;;
17886;SDS011;9069;52.044;7.472;2023-10-19T05:54:13;11.23;;;7.65;;
17886;SDS011;9069;52.044;7.472;2023-10-19T05:56:39;10.90;;;7.90;;
17886;SDS011;9069;52.044;7.472;2023-10-19T05:59:06;12.02;;;7.80;;
17886;SDS011;9069;52.044;7.472;2023-10-19T06:01:33;14.88;;;7.95;;
17886;SDS011;9069;52.044;7.472;2023-10-19T06:04:01;12.18;;;7.40;;
17886;SDS011;9069;52.044;7.472;2023-10-19T06:06:28;11.48;;;7.13;;
17886;SDS011;9069;52.044;7.472;2023-10-19T06:08:55;10.85;;;7.40;;
17886;SDS011;9069;52.044;7.472;2023-10-19T06:11:23;10.32;;;6.80;;
17886;SDS011;9069;52.044;7.472;2023-10-19T06:13:50;11.00;;;7.75;;
17886;SDS011;9069;52.044;7.472;2023-10-19T06:16:16;11.10;;;7.53;;
17886;SDS011;9069;52.044;7.472;2023-10-19T06:18:43;11.27;;;7.00;;
17886;SDS011;9069;52.044;7.472;2023-10-19T06:21:10;14.85;;;6.97;;
17886;SDS011;9069;52.044;7.472;2023-10-19T06:23:38;6.47;;;5.25;;
17886;SDS011;9069;52.044;7.472;2023-10-19T06:26:08;10.27;;;6.13;;
17886;SDS011;9069;52.044;7.472;2023-10-19T06:28:38;9.05;;;5.80;;
17886;SDS011;9069;52.044;7.472;2023-10-19T06:31:07;8.35;;;5.82;;
17886;SDS011;9069;52.044;7.472;2023-10-19T06:33:35;10.38;;;6.43;;
17886;SDS011;9069;52.044;7.472;2023-10-19T06:36:03;8.23;;;6.07;;
17886;SDS011;9069;52.044;7.472;2023-10-19T06:38:30;7.60;;;5.57;;
17886;SDS011;9069;52.044;7.472;2023-10-19T06:40:59;7.05;;;5.53;;
17886;SDS011;9069;52.044;7.472;2023-10-19T06:43:30;8.93;;;5.55;;
17886;SDS011;9069;52.044;7.472;2023-10-19T06:45:59;7.28;;;5.60;;
17886;SDS011;9069;52.044;7.472;2023-10-19T06:48:29;11.02;;;6.15;;
17886;SDS011;9069;52.044;7.472;2023-10-19T06:50:57;9.98;;;5.45;;
17886;SDS011;9069;52.044;7.472;2023-10-19T06:53:23;9.30;;;6.00;;
17886;SDS011;9069;52.044;7.472;2023-10-19T06:55:50;12.20;;;6.22;;
17886;SDS011;9069;52.044;7.472;2023-10-19T06:58:18;7.95;;;5.05;;
17886;SDS011;9069;52.044;7.472;2023-10-19T07:00:46;10.43;;;5.97;;
17886;SDS011;9069;52.044;7.472;2023-10-19T07:03:22;6.45;;;4.63;;
17886;SDS011;9069;52.044;7.472;2023-10-19T07:05:51;8.50;;;5.60;;
17886;SDS011;9069;52.044;7.472;2023-10-19T07:08:19;8.48;;;5.47;;
17886;SDS011;9069;52.044;7.472;2023-10-19T07:10:47;7.30;;;5.32;;
17886;SDS011;9069;52.044;7.472;2023-10-19T07:13:17;7.35;;;5.20;;
17886;SDS011;9069;52.044;7.472;2023-10-19T07:15:44;7.50;;;4.95;;
17886;SDS011;9069;52.044;7.472;2023-10-19T07:18:13;12.13;;;4.93;;
17886;SDS011;9069;52.044;7.472;2023-10-19T07:20:43;7.53;;;5.40;;
17886;SDS011;9069;52.044;7.472;2023-10-19T07:23:14;7.28;;;5.13;;
17886;SDS011;9069;52.044;7.472;2023-10-19T07:25:46;10.93;;;6.10;;
17886;SDS011;9069;52.044;7.472;2023-10-19T07:28:15;8.07;;;5.20;;
17886;SDS011;9069;52.044;7.472;2023-10-19T07:30:43;8.13;;;5.43;;
17886;SDS011;9069;52.044;7.472;2023-10-19T07:33:11;6.82;;;5.05;;
17886;SDS011;9069;52.044;7.472;2023-10-19T07:35:44;8.48;;;5.40;;
17886;SDS011;9069;52.044;7.472;2023-10-19T07:38:13;8.25;;;4.85;;
17886;SDS011;9069;52.044;7.472;2023-10-19T07:40:41;9.13;;;5.07;;
17886;SDS011;9069;52.044;7.472;2023-10-19T07:43:09;6.28;;;4.95;;
17886;SDS011;9069;52.044;7.472;2023-10-19T07:45:36;5.47;;;4.50;;
17886;SDS011;9069;52.044;7.472;2023-10-19T07:48:04;8.07;;;4.45;;
17886;SDS011;9069;52.044;7.472;2023-10-19T07:50:37;6.03;;;4.28;;
17886;SDS011;9069;52.044;7.472;2023-10-19T07:53:07;8.07;;;4.88;;
17886;SDS011;9069;52.044;7.472;2023-10-19T07:55:35;6.35;;;4.50;;
17886;SDS011;9069;52.044;7.472;2023-10-19T07:58:02;8.15;;;4.60;;
17886;SDS011;9069;52.044;7.472;2023-10-19T08:00:30;6.25;;;5.03;;
17886;SDS011;9069;52.044;7.472;2023-10-19T08:02:57;6.85;;;4.78;;
17886;SDS011;9069;52.044;7.472;2023-10-19T08:05:25;7.55;;;4.00;;
17886;SDS011;9069;52.044;7.472;2023-10-19T08:07:52;5.88;;;4.07;;
17886;SDS011;9069;52.044;7.472;2023-10-19T08:10:20;5.38;;;4.25;;
17886;SDS011;9069;52.044;7.472;2023-10-19T08:12:47;5.18;;;4.30;;
17886;SDS011;9069;52.044;7.472;2023-10-19T08:15:15;8.43;;;4.43;;
17886;SDS011;9069;52.044;7.472;2023-10-19T08:17:47;4.78;;;3.67;;
17886;SDS011;9069;52.044;7.472;2023-10-19T08:20:16;7.05;;;4.38;;
17886;SDS011;9069;52.044;7.472;2023-10-19T08:22:43;7.57;;;4.10;;
17886;SDS011;9069;52.044;7.472;2023-10-19T08:25:13;5.80;;;4.03;;
17886;SDS011;9069;52.044;7.472;2023-10-19T08:27:46;6.97;;;4.93;;
17886;SDS011;9069;52.044;7.472;2023-10-19T08:30:17;5.60;;;3.97;;
17886;SDS011;9069;52.044;7.472;2023-10-19T08:32:47;9.73;;;4.18;;
17886;SDS011;9069;52.044;7.472;2023-10-19T08:35:18;5.03;;;3.83;;
17886;SDS011;9069;52.044;7.472;2023-10-19T08:37:53;8.30;;;3.88;;
17886;SDS011;9069;52.044;7.472;2023-10-19T08:40:21;5.63;;;4.28;;
17886;SDS011;9069;52.044;7.472;2023-10-19T08:42:50;7.15;;;4.75;;
17886;SDS011;9069;52.044;7.472;2023-10-19T08:45:17;5.35;;;3.88;;
17886;SDS011;9069;52.044;7.472;2023-10-19T08:47:57;6.07;;;4.00;;
17886;SDS011;9069;52.044;7.472;2023-10-19T08:50:28;6.55;;;4.32;;
17886;SDS011;9069;52.044;7.472;2023-10-19T08:52:57;6.07;;;4.28;;
17886;SDS011;9069;52.044;7.472;2023-10-19T08:55:25;5.68;;;3.75;;
17886;SDS011;9069;52.044;7.472;2023-10-19T08:58:12;8.35;;;4.03;;
17886;SDS011;9069;52.044;7.472;2023-10-19T09:00:51;6.53;;;3.90;;
17886;SDS011;9069;52.044;7.472;2023-10-19T09:03:23;4.50;;;3.58;;
17886;SDS011;9069;52.044;7.472;2023-10-19T09:05:51;6.15;;;3.85;;
17886;SDS011;9069;52.044;7.472;2023-10-19T09:08:18;5.95;;;3.42;;
17886;SDS011;9069;52.044;7.472;2023-10-19T09:10:47;4.72;;;3.33;;
17886;SDS011;9069;52.044;7.472;2023-10-19T09:13:15;6.22;;;3.35;;
17886;SDS011;9069;52.044;7.472;2023-10-19T09:15:46;4.68;;;3.17;;
17886;SDS011;9069;52.044;7.472;2023-10-19T09:18:19;4.60;;;3.33;;
17886;SDS011;9069;52.044;7.472;2023-10-19T09:20:51;5.68;;;3.50;;
17886;SDS011;9069;52.044;7.472;2023-10-19T09:23:22;4.50;;;3.15;;
17886;SDS011;9069;52.044;7.472;2023-10-19T09:25:52;4.45;;;3.25;;
17886;SDS011;9069;52.044;7.472;2023-10-19T09:28:20;6.00;;;3.33;;
17886;SDS011;9069;52.044;7.472;2023-10-19T09:30:48;5.45;;;3.53;;
17886;SDS011;9069;52.044;7.472;2023-10-19T09:33:18;7.55;;;3.88;;
17886;SDS011;9069;52.044;7.472;2023-10-19T09:35:48;5.30;;;3.20;;
17886;SDS011;9069;52.044;7.472;2023-10-19T09:38:19;7.20;;;3.30;;
17886;SDS011;9069;52.044;7.472;2023-10-19T09:40:49;6.78;;;3.50;;
17886;SDS011;9069;52.044;7.472;2023-10-19T09:46:31;6.40;;;4.40;;
17886;SDS011;9069;52.044;7.472;2023-10-19T09:48:59;7.50;;;4.50;;
17886;SDS011;9069;52.044;7.472;2023-10-19T09:51:27;10.35;;;4.82;;
17886;SDS011;9069;52.044;7.472;2023-10-19T09:53:59;7.78;;;4.38;;
17886;SDS011;9069;52.044;7.472;2023-10-19T09:56:34;6.38;;;4.07;;
17886;SDS011;9069;52.044;7.472;2023-10-19T09:59:18;7.43;;;3.55;;
17886;SDS011;9069;52.044;7.472;2023-10-19T10:02:04;3.65;;;2.80;;
17886;SDS011;9069;52.044;7.472;2023-10-19T10:04:32;5.15;;;2.88;;
17886;SDS011;9069;52.044;7.472;2023-10-19T10:07:02;5.78;;;3.15;;
17886;SDS011;9069;52.044;7.472;2023-10-19T10:09:36;3.10;;;2.40;;
17886;SDS011;9069;52.044;7.472;2023-10-19T10:12:41;5.10;;;2.60;;
17886;SDS011;9069;52.044;7.472;2023-10-19T10:17:34;4.00;;;2.17;;
17886;SDS011;9069;52.044;7.472;2023-10-19T10:22:40;3.40;;;2.22;;
17886;SDS011;9069;52.044;7.472;2023-10-19T10:25:25;6.80;;;2.60;;
17886;SDS011;9069;52.044;7.472;2023-10-19T10:27:57;3.38;;;2.42;;
17886;SDS011;9069;52.044;7.472;2023-10-19T10:30:24;7.00;;;2.55;;
17886;SDS011;9069;52.044;7.472;2023-10-19T10:32:52;4.38;;;2.28;;
17886;SDS011;9069;52.044;7.472;2023-10-19T10:38:10;5.57;;;2.40;;
17886;SDS011;9069;52.044;7.472;2023-10-19T10:43:19;3.97;;;2.55;;
17886;SDS011;9069;52.044;7.472;2023-10-19T10:45:47;4.07;;;2.78;;
17886;SDS011;9069;52.044;7.472;2023-10-19T10:48:15;4.45;;;2.20;;
17886;SDS011;9069;52.044;7.472;2023-10-19T10:50:43;5.07;;;2.00;;
17886;SDS011;9069;52.044;7.472;2023-10-19T10:53:12;5.65;;;2.17;;
17886;SDS011;9069;52.044;7.472;2023-10-19T10:55:40;7.03;;;2.25;;
17886;SDS011;9069;52.044;7.472;2023-10-19T10:58:07;4.10;;;2.55;;
17886;SDS011;9069;52.044;7.472;2023-10-19T11:00:41;6.25;;;2.30;;
17886;SDS011;9069;52.044;7.472;2023-10-19T11:03:09;3.97;;;2.25;;
17886;SDS011;9069;52.044;7.472;2023-10-19T11:05:37;4.78;;;2.30;;
17886;SDS011;9069;52.044;7.472;2023-10-19T11:10:31;4.85;;;2.30;;
17886;SDS011;9069;52.044;7.472;2023-10-19T11:15:28;2.95;;;2.03;;
17886;SDS011;9069;52.044;7.472;2023-10-19T11:17:55;4.68;;;2.53;;
17886;SDS011;9069;52.044;7.472;2023-10-19T11:20:24;3.10;;;2.00;;
17886;SDS011;9069;52.044;7.472;2023-10-19T11:22:51;4.65;;;2.10;;
17886;SDS011;9069;52.044;7.472;2023-10-19T11:27:52;6.78;;;2.42;;
17886;SDS011;9069;52.044;7.472;2023-10-19T11:30:26;6.38;;;2.55;;
17886;SDS011;9069;52.044;7.472;2023-10-19T11:32:54;4.43;;;2.28;;
17886;SDS011;9069;52.044;7.472;2023-10-19T11:35:27;5.75;;;2.55;;
17886;SDS011;9069;52.044;7.472;2023-10-19T11:37:56;3.42;;;2.17;;
17886;SDS011;9069;52.044;7.472;2023-10-19T11:40:29;3.13;;;1.98;;
17886;SDS011;9069;52.044;7.472;2023-10-19T11:42:56;4.90;;;1.85;;
17886;SDS011;9069;52.044;7.472;2023-10-19T11:45:23;5.43;;;2.00;;
17886;SDS011;9069;52.044;7.472;2023-10-19T11:47:50;3.05;;;1.73;;
17886;SDS011;9069;52.044;7.472;2023-10-19T11:50:17;5.50;;;2.17;;
17886;SDS011;9069;52.044;7.472;2023-10-19T11:52:45;4.35;;;1.90;;
17886;SDS011;9069;52.044;7.472;2023-10-19T11:55:13;3.75;;;1.58;;
17886;SDS011;9069;52.044;7.472;2023-10-19T11:57:41;2.25;;;1.50;;
17886;SDS011;9069;52.044;7.472;2023-10-19T12:00:10;2.92;;;1.58;;
17886;SDS011;9069;52.044;7.472;2023-10-19T12:02:40;13.18;;;2.00;;
17886;SDS011;9069;52.044;7.472;2023-10-19T12:05:10;4.80;;;1.60;;
17886;SDS011;9069;52.044;7.472;2023-10-19T12:07:37;3.10;;;1.90;;
17886;SDS011;9069;52.044;7.472;2023-10-19T12:10:05;3.85;;;1.77;;
17886;SDS011;9069;52.044;7.472;2023-10-19T12:12:37;3.55;;;1.73;;
17886;SDS011;9069;52.044;7.472;2023-10-19T12:15:24;7.30;;;2.15;;
17886;SDS011;9069;52.044;7.472;2023-10-19T12:17:52;4.28;;;1.52;;
17886;SDS011;9069;52.044;7.472;2023-10-19T12:20:21;4.97;;;2.08;;
17886;SDS011;9069;52.044;7.472;2023-10-19T12:22:50;4.90;;;1.98;;
17886;SDS011;9069;52.044;7.472;2023-10-19T12:25:21;3.88;;;1.58;;
17886;SDS011;9069;52.044;7.472;2023-10-19T12:28:00;3.95;;;1.48;;
17886;SDS011;9069;52.044;7.472;2023-10-19T12:30:27;5.72;;;1.90;;
17886;SDS011;9069;52.044;7.472;2023-10-19T12:33:01;3.78;;;1.83;;
17886;SDS011;9069;52.044;7.472;2023-10-19T12:35:33;5.75;;;1.63;;
17886;SDS011;9069;52.044;7.472;2023-10-19T12:38:20;4.88;;;1.88;;
17886;SDS011;9069;52.044;7.472;2023-10-19T12:40:47;5.68;;;2.10;;
17886;SDS011;9069;52.044;7.472;2023-10-19T12:43:17;3.15;;;1.58;;
17886;SDS011;9069;52.044;7.472;2023-10-19T12:45:51;4.80;;;1.77;;
17886;SDS011;9069;52.044;7.472;2023-10-19T12:48:24;2.17;;;1.40;;
17886;SDS011;9069;52.044;7.472;2023-10-19T12:50:59;1.80;;;1.10;;
17886;SDS011;9069;52.044;7.472;2023-10-19T12:53:33;3.25;;;1.30;;
17886;SDS011;9069;52.044;7.472;2023-10-19T12:56:01;5.10;;;1.90;;
17886;SDS011;9069;52.044;7.472;2023-10-19T12:58:30;5.43;;;1.75;;
17886;SDS011;9069;52.044;7.472;2023-10-19T13:00:58;2.67;;;1.38;;
17886;SDS011;9069;52.044;7.472;2023-10-19T13:03:25;3.92;;;1.40;;
17886;SDS011;9069;52.044;7.472;2023-10-19T13:05:58;6.32;;;1.65;;
17886;SDS011;9069;52.044;7.472;2023-10-19T13:08:27;6.57;;;1.77;;
17886;SDS011;9069;52.044;7.472;2023-10-19T13:10:54;6.18;;;1.60;;
17886;SDS011;9069;52.044;7.472;2023-10-19T13:13:34;3.63;;;1.55;;
17886;SDS011;9069;52.044;7.472;2023-10-19T13:16:05;3.83;;;1.67;;
17886;SDS011;9069;52.044;7.472;2023-10-19T13:18:32;6.18;;;1.90;;
17886;SDS011;9069;52.044;7.472;2023-10-19T13:21:04;2.72;;;1.17;;
17886;SDS011;9069;52.044;7.472;2023-10-19T13:23:31;3.53;;;1.48;;
17886;SDS011;9069;52.044;7.472;2023-10-19T13:26:03;5.18;;;2.03;;
17886;SDS011;9069;52.044;7.472;2023-10-19T13:28:36;4.93;;;2.00;;
17886;SDS011;9069;52.044;7.472;2023-10-19T13:31:04;2.17;;;1.65;;
17886;SDS011;9069;52.044;7.472;2023-10-19T13:33:31;6.05;;;1.77;;
17886;SDS011;9069;52.044;7.472;2023-10-19T13:35:58;8.32;;;2.65;;
17886;SDS011;9069;52.044;7.472;2023-10-19T13:38:27;5.10;;;1.67;;
17886;SDS011;9069;52.044;7.472;2023-10-19T13:40:54;3.15;;;1.73;;
17886;SDS011;9069;52.044;7.472;2023-10-19T13:43:21;4.25;;;1.63;;
17886;SDS011;9069;52.044;7.472;2023-10-19T13:45:48;2.63;;;1.58;;
17886;SDS011;9069;52.044;7.472;2023-10-19T13:48:15;4.00;;;1.70;;
17886;SDS011;9069;52.044;7.472;2023-10-19T13:50:43;2.83;;;1.83;;
17886;SDS011;9069;52.044;7.472;2023-10-19T13:53:15;3.90;;;1.58;;
17886;SDS011;9069;52.044;7.472;2023-10-19T13:55:42;3.95;;;1.70;;
17886;SDS011;9069;52.044;7.472;2023-10-19T13:58:09;5.68;;;1.80;;
17886;SDS011;9069;52.044;7.472;2023-10-19T14:00:37;3.35;;;1.45;;
17886;SDS011;9069;52.044;7.472;2023-10-19T14:03:07;7.70;;;2.10;;
17886;SDS011;9069;52.044;7.472;2023-10-19T14:05:45;6.68;;;2.00;;
17886;SDS011;9069;52.044;7.472;2023-10-19T14:08:16;7.57;;;2.17;;
17886;SDS011;9069;52.044;7.472;2023-10-19T14:10:44;8.27;;;3.08;;
17886;SDS011;9069;52.044;7.472;2023-10-19T14:13:11;10.65;;;5.05;;
17886;SDS011;9069;52.044;7.472;2023-10-19T14:15:38;8.38;;;4.75;;
17886;SDS011;9069;52.044;7.472;2023-10-19T14:18:06;6.35;;;2.70;;
17886;SDS011;9069;52.044;7.472;2023-10-19T14:20:33;6.35;;;2.25;;
17886;SDS011;9069;52.044;7.472;2023-10-19T14:23:01;5.30;;;2.88;;
17886;SDS011;9069;52.044;7.472;2023-10-19T14:25:31;4.25;;;2.75;;
17886;SDS011;9069;52.044;7.472;2023-10-19T14:28:02;4.38;;;2.10;;
17886;SDS011;9069;52.044;7.472;2023-10-19T14:30:32;3.90;;;1.80;;
17886;SDS011;9069;52.044;7.472;2023-10-19T14:32:59;4.80;;;2.70;;
17886;SDS011;9069;52.044;7.472;2023-10-19T14:35:28;5.55;;;1.90;;
17886;SDS011;9069;52.044;7.472;2023-10-19T14:37:55;8.00;;;2.55;;
17886;SDS011;9069;52.044;7.472;2023-10-19T14:40:27;6.35;;;2.08;;
17886;SDS011;9069;52.044;7.472;2023-10-19T14:42:55;4.38;;;2.08;;
17886;SDS011;9069;52.044;7.472;2023-10-19T14:45:24;5.55;;;1.85;;
17886;SDS011;9069;52.044;7.472;2023-10-19T14:47:52;6.22;;;2.30;;
17886;SDS011;9069;52.044;7.472;2023-10-19T14:50:30;4.32;;;1.95;;
17886;SDS011;9069;52.044;7.472;2023-10-19T14:52:57;3.53;;;2.00;;
17886;SDS011;9069;52.044;7.472;2023-10-19T14:55:24;4.65;;;2.40;;
17886;SDS011;9069;52.044;7.472;2023-10-19T14:57:52;3.05;;;2.00;;
17886;SDS011;9069;52.044;7.472;2023-10-19T15:00:23;7.20;;;2.25;;
17886;SDS011;9069;52.044;7.472;2023-10-19T15:03:03;3.33;;;1.92;;
17886;SDS011;9069;52.044;7.472;2023-10-19T15:05:35;6.70;;;2.22;;
17886;SDS011;9069;52.044;7.472;2023-10-19T15:08:05;5.68;;;2.40;;
17886;SDS011;9069;52.044;7.472;2023-10-19T15:10:34;5.72;;;2.05;;
17886;SDS011;9069;52.044;7.472;2023-10-19T15:13:02;3.90;;;1.65;;
17886;SDS011;9069;52.044;7.472;2023-10-19T15:15:31;4.50;;;2.17;;
17886;SDS011;9069;52.044;7.472;2023-10-19T15:17:58;3.47;;;1.98;;
17886;SDS011;9069;52.044;7.472;2023-10-19T15:20:27;5.20;;;2.08;;
17886;SDS011;9069;52.044;7.472;2023-10-19T15:22:54;5.55;;;2.20;;
17886;SDS011;9069;52.044;7.472;2023-10-19T15:25:22;4.55;;;2.90;;
17886;SDS011;9069;52.044;7.472;2023-10-19T15:27:52;6.82;;;3.10;;
17886;SDS011;9069;52.044;7.472;2023-10-19T15:30:20;9.90;;;3.15;;
17886;SDS011;9069;52.044;7.472;2023-10-19T15:32:48;9.50;;;2.70;;
17886;SDS011;9069;52.044;7.472;2023-10-19T15:35:17;6.72;;;1.90;;
17886;SDS011;9069;52.044;7.472;2023-10-19T15:37:52;5.07;;;1.75;;
17886;SDS011;9069;52.044;7.472;2023-10-19T15:40:23;4.45;;;1.98;;